Time;durP1;ratioP1;P1;durP2;ratioP2;P2;SDS_P1;SDS_P2;PMS_P1;PMS_P2;Temp;Humidity;BMP_temperature;BMP_pressure;BME280_temperature;BME280_humidity;BME280_pressure;Samples;Min_cycle;Max_cycle;Signal;HPM_P1;HPM_P2
2022/11/25 00:01:03;;;;;;;;;;;9.40;99.90;;;;;;5054945;28;19909;-72
2022/11/25 00:03:28;;;;;;;;;;;9.40;99.90;;;;;;5054858;28;20332;-73
2022/11/25 00:05:54;;;;;;;;;;;9.40;99.90;;;;;;5055020;28;19999;-72
2022/11/25 00:08:19;;;;;;;;;;;9.40;99.90;;;;;;5054489;28;20387;-74
2022/11/25 00:10:45;;;;;;;;;;;9.40;99.90;;;;;;5054399;28;20181;-73
2022/11/25 00:13:10;;;;;;;;;;;9.50;99.90;;;;;;5054659;28;19916;-75
2022/11/25 00:15:36;;;;;;;;;;;9.50;99.90;;;;;;5054015;28;19920;-73
2022/11/25 00:18:01;;;;;;;;;;;9.40;99.90;;;;;;5054572;28;19909;-73
2022/11/25 00:20:27;;;;;;;;;;;9.40;99.90;;;;;;5054276;28;20334;-74
2022/11/25 00:22:53;;;;;;;;;;;9.30;99.90;;;;;;5054742;28;20003;-72
2022/11/25 00:25:18;;;;;;;;;;;9.30;99.90;;;;;;5054434;28;19909;-72
2022/11/25 00:27:44;;;;;;;;;;;9.20;99.90;;;;;;5054649;28;19912;-75
2022/11/25 00:30:09;;;;;;;;;;;9.10;99.90;;;;;;5054080;28;19944;-74
2022/11/25 00:32:35;;;;;;;;;;;9.10;99.90;;;;;;5054050;28;20437;-72
2022/11/25 00:35:00;;;;;;;;;;;9.00;99.90;;;;;;5035981;28;20291;-73
2022/11/25 00:37:26;;;;;;;;;;;8.80;99.90;;;;;;5053967;28;19956;-74
2022/11/25 00:39:51;;;;;;;;;;;8.80;99.90;;;;;;5053888;28;19909;-73
2022/11/25 00:45:01;;;;;;;;;;;8.80;99.90;;;;;;5054058;28;20290;-75
2022/11/25 00:47:28;;;;;;;;;;;8.70;99.90;;;;;;5053759;28;20011;-73
2022/11/25 00:49:53;;;;;;;;;;;8.60;99.90;;;;;;5036416;28;19916;-74
2022/11/25 00:52:23;;;;;;;;;;;8.60;99.90;;;;;;5053915;28;19921;-74
2022/11/25 00:54:49;;;;;;;;;;;8.60;99.90;;;;;;5053600;28;19913;-73
2022/11/25 00:57:16;;;;;;;;;;;8.60;99.90;;;;;;5053919;28;19913;-72
2022/11/25 00:59:41;;;;;;;;;;;8.60;99.90;;;;;;5035782;28;20137;-73
2022/11/25 01:02:07;;;;;;;;;;;8.60;99.90;;;;;;5053541;28;20371;-73
2022/11/25 01:04:33;;;;;;;;;;;8.50;99.90;;;;;;5054079;28;19915;-73
2022/11/25 01:06:59;;;;;;;;;;;8.60;99.90;;;;;;5053530;28;19912;-72
2022/11/25 01:09:25;;;;;;;;;;;8.60;99.90;;;;;;5053765;28;20394;-72
2022/11/25 01:11:51;;;;;;;;;;;8.60;99.90;;;;;;5053497;28;19938;-71
2022/11/25 01:14:17;;;;;;;;;;;8.60;99.90;;;;;;5053609;28;20009;-74
2022/11/25 01:16:42;;;;;;;;;;;8.60;99.90;;;;;;5053417;28;19909;-73
2022/11/25 01:19:09;;;;;;;;;;;8.60;99.90;;;;;;5053961;28;19916;-74
2022/11/25 01:21:34;;;;;;;;;;;8.60;99.90;;;;;;5053397;28;19909;-73
2022/11/25 01:24:01;;;;;;;;;;;8.70;99.90;;;;;;5053342;28;19991;-73
2022/11/25 01:26:27;;;;;;;;;;;8.70;99.90;;;;;;5036438;28;19913;-73
2022/11/25 01:28:54;;;;;;;;;;;8.80;99.90;;;;;;5057563;28;19931;-74
2022/11/25 01:31:20;;;;;;;;;;;8.80;99.90;;;;;;5057725;28;19908;-72
2022/11/25 01:33:47;;;;;;;;;;;8.80;99.90;;;;;;5057644;28;19909;-72
2022/11/25 01:36:14;;;;;;;;;;;8.80;99.90;;;;;;5057651;28;20011;-73
2022/11/25 01:38:40;;;;;;;;;;;8.80;99.90;;;;;;5057313;28;19935;-72
2022/11/25 01:41:06;;;;;;;;;;;8.90;99.90;;;;;;5057617;28;19909;-73
2022/11/25 01:43:32;;;;;;;;;;;8.90;99.90;;;;;;5057190;28;20302;-72
2022/11/25 01:46:16;;;;;;;;;;;8.90;99.90;;;;;;5057724;28;19915;-72
2022/11/25 01:48:45;;;;;;;;;;;8.90;99.90;;;;;;5057126;28;20003;-75
2022/11/25 01:51:17;;;;;;;;;;;8.80;99.90;;;;;;5057594;28;19915;-73
2022/11/25 01:53:43;;;;;;;;;;;8.80;99.90;;;;;;5056602;28;19921;-73
2022/11/25 01:56:09;;;;;;;;;;;8.80;99.90;;;;;;5039091;28;19915;-73
2022/11/25 01:58:36;;;;;;;;;;;8.70;99.90;;;;;;5057227;28;19909;-74
2022/11/25 02:01:02;;;;;;;;;;;8.70;99.90;;;;;;5057149;28;20423;-73
2022/11/25 02:03:33;;;;;;;;;;;8.80;99.90;;;;;;5057086;28;19908;-72
2022/11/25 02:06:06;;;;;;;;;;;8.80;99.90;;;;;;5056798;28;20062;-73
2022/11/25 02:08:32;;;;;;;;;;;8.70;99.90;;;;;;5057052;28;19962;-73
2022/11/25 02:10:59;;;;;;;;;;;8.80;99.90;;;;;;5056707;28;19909;-74
2022/11/25 02:13:25;;;;;;;;;;;8.70;99.90;;;;;;5056707;28;20287;-73
2022/11/25 02:15:50;;;;;;;;;;;8.70;99.90;;;;;;5056567;28;19912;-72
2022/11/25 02:18:16;;;;;;;;;;;8.70;99.90;;;;;;5056820;28;20386;-73
2022/11/25 02:20:42;;;;;;;;;;;8.70;99.90;;;;;;5056482;28;20019;-73
2022/11/25 02:23:07;;;;;;;;;;;8.70;99.90;;;;;;5056481;28;19909;-73
2022/11/25 02:25:36;;;;;;;;;;;8.70;99.90;;;;;;5056941;28;19909;-73
2022/11/25 02:28:04;;;;;;;;;;;8.70;99.90;;;;;;5056396;28;19909;-73
2022/11/25 02:30:30;;;;;;;;;;;8.70;99.90;;;;;;5056329;28;19916;-74
2022/11/25 02:32:57;;;;;;;;;;;8.70;99.90;;;;;;5056883;28;19909;-73
2022/11/25 02:35:25;;;;;;;;;;;8.80;99.90;;;;;;5057072;28;20389;-72
2022/11/25 02:37:51;;;;;;;;;;;8.80;99.90;;;;;;5056606;28;19956;-74
2022/11/25 02:40:17;;;;;;;;;;;8.70;99.90;;;;;;5057655;28;20382;-74
2022/11/25 02:42:44;;;;;;;;;;;8.70;99.90;;;;;;5056049;28;19916;-73
2022/11/25 02:45:12;;;;;;;;;;;8.70;99.90;;;;;;5056127;28;19909;-72
2022/11/25 02:47:37;;;;;;;;;;;8.70;99.90;;;;;;5056085;28;19915;-74
2022/11/25 02:50:03;;;;;;;;;;;8.70;99.90;;;;;;5056760;28;20346;-73
2022/11/25 02:52:28;;;;;;;;;;;8.70;99.90;;;;;;5055698;28;19920;-74
2022/11/25 02:54:54;;;;;;;;;;;8.70;99.90;;;;;;5056410;28;20015;-73
2022/11/25 02:57:19;;;;;;;;;;;8.70;99.90;;;;;;5055866;28;19909;-74
2022/11/25 02:59:47;;;;;;;;;;;8.60;99.90;;;;;;5054976;28;20082;-73
2022/11/25 03:02:12;;;;;;;;;;;8.60;99.90;;;;;;5056044;28;19913;-73
2022/11/25 03:04:38;;;;;;;;;;;8.60;99.90;;;;;;5055731;28;19914;-73
2022/11/25 03:07:03;;;;;;;;;;;8.60;99.90;;;;;;5055742;28;19913;-74
2022/11/25 03:09:29;;;;;;;;;;;8.60;99.90;;;;;;5056183;28;20421;-74
2022/11/25 03:14:38;;;;;;;;;;;8.60;99.90;;;;;;5055512;28;19920;-72
2022/11/25 03:17:04;;;;;;;;;;;8.70;99.90;;;;;;5056011;28;19909;-74
2022/11/25 03:19:29;;;;;;;;;;;8.80;99.90;;;;;;5055485;28;19915;-72
2022/11/25 03:21:55;;;;;;;;;;;8.70;99.90;;;;;;5055694;28;19909;-73
2022/11/25 03:24:20;;;;;;;;;;;8.80;99.90;;;;;;5055285;28;19944;-75
2022/11/25 03:26:46;;;;;;;;;;;8.80;99.90;;;;;;5055540;28;20384;-74
2022/11/25 03:29:11;;;;;;;;;;;8.80;99.90;;;;;;5055223;28;19954;-72
2022/11/25 03:31:37;;;;;;;;;;;8.80;99.90;;;;;;5055227;28;19909;-73
2022/11/25 03:34:02;;;;;;;;;;;8.80;99.90;;;;;;5055365;28;19935;-73
2022/11/25 03:36:28;;;;;;;;;;;8.80;99.90;;;;;;5055100;28;20310;-73
2022/11/25 03:38:53;;;;;;;;;;;8.70;99.90;;;;;;5055114;28;19909;-74
2022/11/25 03:41:19;;;;;;;;;;;8.80;99.90;;;;;;5055243;28;19958;-72
2022/11/25 03:43:45;;;;;;;;;;;8.90;99.90;;;;;;5054910;28;20457;-73
2022/11/25 03:46:10;;;;;;;;;;;8.80;99.90;;;;;;5054924;28;19916;-74
2022/11/25 03:48:35;;;;;;;;;;;8.80;99.90;;;;;;5054976;28;19999;-72
2022/11/25 03:51:01;;;;;;;;;;;8.70;99.90;;;;;;5055287;28;20409;-73
2022/11/25 03:53:26;;;;;;;;;;;8.60;99.90;;;;;;5054400;28;19921;-73
2022/11/25 03:55:52;;;;;;;;;;;8.70;99.90;;;;;;5054959;28;19923;-73
2022/11/25 03:58:17;;;;;;;;;;;8.50;99.90;;;;;;5054711;28;19908;-74
2022/11/25 04:00:43;;;;;;;;;;;8.50;99.90;;;;;;5054920;28;19924;-74
2022/11/25 04:03:09;;;;;;;;;;;8.40;99.90;;;;;;5054588;28;20016;-73
2022/11/25 04:05:34;;;;;;;;;;;8.30;99.90;;;;;;5054808;28;20006;-75
2022/11/25 04:07:59;;;;;;;;;;;8.30;99.90;;;;;;5054503;28;19909;-75
2022/11/25 04:10:25;;;;;;;;;;;8.20;99.90;;;;;;5054407;28;19913;-72
2022/11/25 04:12:51;;;;;;;;;;;8.20;99.90;;;;;;5054747;28;19915;-72
2022/11/25 04:15:17;;;;;;;;;;;8.20;99.90;;;;;;5054347;28;20010;-74
2022/11/25 04:17:43;;;;;;;;;;;8.40;99.90;;;;;;5054336;28;19959;-73
2022/11/25 04:20:09;;;;;;;;;;;8.40;99.90;;;;;;5054243;28;19912;-74
2022/11/25 04:22:35;;;;;;;;;;;8.40;99.90;;;;;;5054537;28;19912;-73
2022/11/25 04:25:00;;;;;;;;;;;8.50;99.90;;;;;;5054290;28;20416;-74
2022/11/25 04:27:26;;;;;;;;;;;8.50;99.90;;;;;;5054373;28;19913;-73
2022/11/25 04:29:51;;;;;;;;;;;8.50;99.90;;;;;;5054083;28;19909;-73
2022/11/25 04:32:17;;;;;;;;;;;8.50;99.90;;;;;;5054275;28;20331;-72
2022/11/25 04:34:42;;;;;;;;;;;8.50;99.90;;;;;;5053874;28;19913;-73
2022/11/25 04:37:08;;;;;;;;;;;8.50;99.90;;;;;;5054209;28;19959;-71
2022/11/25 04:39:33;;;;;;;;;;;8.40;99.90;;;;;;5053876;28;19909;-73
2022/11/25 04:44:42;;;;;;;;;;;8.50;99.90;;;;;;5053845;28;20020;-72
2022/11/25 04:47:08;;;;;;;;;;;8.30;99.90;;;;;;5054231;28;19948;-72
2022/11/25 04:49:33;;;;;;;;;;;8.10;99.90;;;;;;5054330;28;19935;-74
2022/11/25 04:51:59;;;;;;;;;;;8.10;99.90;;;;;;5053651;28;19921;-74
2022/11/25 04:54:25;;;;;;;;;;;8.00;99.90;;;;;;5053986;28;20416;-73
2022/11/25 04:56:50;;;;;;;;;;;7.90;99.90;;;;;;5053820;28;19913;-76
2022/11/25 05:02:00;;;;;;;;;;;7.90;99.90;;;;;;5052866;28;19916;-74
2022/11/25 05:04:26;;;;;;;;;;;8.00;99.90;;;;;;5053684;28;20302;-77
2022/11/25 05:06:51;;;;;;;;;;;8.00;99.90;;;;;;5053895;28;20381;-76
2022/11/25 05:09:17;;;;;;;;;;;7.90;99.90;;;;;;5053597;28;19916;-73
2022/11/25 05:11:42;;;;;;;;;;;7.80;99.90;;;;;;5053863;28;19913;-73
2022/11/25 05:14:08;;;;;;;;;;;7.60;99.90;;;;;;5053447;28;20286;-72
2022/11/25 05:16:34;;;;;;;;;;;7.70;99.90;;;;;;5054070;28;19909;-73
2022/11/25 05:18:59;;;;;;;;;;;7.70;99.90;;;;;;5053481;28;19955;-73
2022/11/25 05:21:25;;;;;;;;;;;7.60;99.90;;;;;;5053725;28;19909;-73
2022/11/25 05:23:50;;;;;;;;;;;7.60;99.90;;;;;;5035540;28;19924;-73
2022/11/25 05:26:16;;;;;;;;;;;7.80;99.90;;;;;;5053408;28;19948;-73
2022/11/25 05:28:41;;;;;;;;;;;7.80;99.90;;;;;;5053645;28;20000;-73
2022/11/25 05:31:07;;;;;;;;;;;8.00;99.90;;;;;;5053385;28;20374;-72
2022/11/25 05:33:32;;;;;;;;;;;8.00;99.90;;;;;;5053670;28;19909;-72
2022/11/25 05:35:59;;;;;;;;;;;7.80;99.90;;;;;;5053209;28;19913;-73
2022/11/25 05:38:25;;;;;;;;;;;7.70;99.90;;;;;;5053598;28;19908;-73
2022/11/25 05:40:51;;;;;;;;;;;7.60;99.90;;;;;;5053316;28;20331;-73
2022/11/25 05:43:17;;;;;;;;;;;7.50;99.90;;;;;;5053186;28;19913;-74
2022/11/25 05:45:42;;;;;;;;;;;7.50;99.90;;;;;;5053766;28;20007;-73
2022/11/25 05:48:08;;;;;;;;;;;7.50;99.90;;;;;;5053508;28;20015;-74
2022/11/25 05:50:33;;;;;;;;;;;7.40;99.90;;;;;;5053695;28;19915;-74
2022/11/25 05:52:59;;;;;;;;;;;7.40;99.90;;;;;;5053043;28;19947;-73
2022/11/25 05:55:24;;;;;;;;;;;7.20;99.90;;;;;;5053081;28;20371;-74
2022/11/25 05:57:50;;;;;;;;;;;7.20;99.90;;;;;;5053159;28;19915;-73
2022/11/25 06:00:15;;;;;;;;;;;7.20;99.90;;;;;;5053132;28;19959;-74
2022/11/25 06:02:41;;;;;;;;;;;7.10;99.90;;;;;;5053677;28;20374;-72
2022/11/25 06:05:06;;;;;;;;;;;7.10;99.90;;;;;;5053027;28;19913;-72
2022/11/25 06:07:32;;;;;;;;;;;7.10;99.90;;;;;;5052980;28;19909;-74
2022/11/25 06:09:57;;;;;;;;;;;7.10;99.90;;;;;;5053002;28;19915;-73
2022/11/25 06:12:23;;;;;;;;;;;7.10;99.90;;;;;;5053990;28;20271;-73
2022/11/25 06:14:49;;;;;;;;;;;7.00;99.90;;;;;;5056921;28;19912;-73
2022/11/25 06:17:15;;;;;;;;;;;7.00;99.90;;;;;;5038749;28;20370;-73
2022/11/25 06:19:40;;;;;;;;;;;7.00;99.90;;;;;;5056897;28;19916;-74
2022/11/25 06:22:06;;;;;;;;;;;7.00;99.90;;;;;;5056584;28;20076;-75
2022/11/25 06:24:31;;;;;;;;;;;7.00;99.90;;;;;;5056836;28;19909;-74
2022/11/25 06:26:57;;;;;;;;;;;7.00;99.90;;;;;;5056439;28;20268;-72
2022/11/25 06:29:22;;;;;;;;;;;6.80;99.90;;;;;;5057006;28;19913;-73
2022/11/25 06:31:49;;;;;;;;;;;6.90;99.90;;;;;;5056406;28;20427;-73
2022/11/25 06:34:14;;;;;;;;;;;6.90;99.90;;;;;;5056630;28;20407;-74
2022/11/25 06:36:40;;;;;;;;;;;7.10;99.90;;;;;;5056343;28;19916;-74
2022/11/25 06:39:05;;;;;;;;;;;7.10;99.90;;;;;;5056293;28;19909;-74
2022/11/25 06:41:31;;;;;;;;;;;7.30;99.90;;;;;;5038304;28;19909;-72
2022/11/25 06:43:56;;;;;;;;;;;7.30;99.90;;;;;;5056362;28;19913;-73
2022/11/25 06:46:22;;;;;;;;;;;7.30;99.90;;;;;;5056152;28;19909;-74
2022/11/25 06:48:47;;;;;;;;;;;7.40;99.90;;;;;;5056405;28;19915;-73
2022/11/25 06:51:13;;;;;;;;;;;7.40;99.90;;;;;;5056859;28;19908;-72
2022/11/25 06:53:39;;;;;;;;;;;7.20;99.90;;;;;;5055569;28;19921;-75
2022/11/25 06:56:07;;;;;;;;;;;7.20;99.90;;;;;;5055869;28;20325;-74
2022/11/25 06:58:32;;;;;;;;;;;7.20;99.90;;;;;;5055871;28;20008;-72
2022/11/25 07:01:06;;;;;;;;;;;7.20;99.90;;;;;;5055893;28;20359;-73
2022/11/25 07:03:31;;;;;;;;;;;7.30;99.90;;;;;;5055831;28;19950;-75
2022/11/25 07:05:57;;;;;;;;;;;7.20;99.90;;;;;;5056344;28;20413;-74
2022/11/25 07:08:24;;;;;;;;;;;7.00;99.90;;;;;;5055706;28;20015;-73
2022/11/25 07:10:49;;;;;;;;;;;6.90;99.90;;;;;;5055692;28;19963;-72
2022/11/25 07:13:15;;;;;;;;;;;6.80;99.90;;;;;;5056236;28;19913;-74
2022/11/25 07:15:40;;;;;;;;;;;6.70;99.90;;;;;;5055503;28;20428;-73
2022/11/25 07:18:06;;;;;;;;;;;6.70;99.90;;;;;;5055547;28;19944;-72
2022/11/25 07:20:31;;;;;;;;;;;6.80;99.90;;;;;;5055504;28;19909;-72
2022/11/25 07:22:57;;;;;;;;;;;6.80;99.90;;;;;;5055726;28;20317;-74
2022/11/25 07:25:22;;;;;;;;;;;6.80;99.90;;;;;;5054771;28;19909;-73
2022/11/25 07:27:48;;;;;;;;;;;6.80;99.90;;;;;;5037453;28;20432;-74
2022/11/25 07:30:14;;;;;;;;;;;6.80;99.90;;;;;;5055369;28;19912;-72
2022/11/25 07:32:39;;;;;;;;;;;6.80;99.90;;;;;;5055333;28;19915;-73
2022/11/25 07:35:05;;;;;;;;;;;6.80;99.90;;;;;;5055178;28;19919;-74
2022/11/25 07:37:30;;;;;;;;;;;6.80;99.90;;;;;;5055244;28;19909;-73
2022/11/25 07:39:56;;;;;;;;;;;6.70;99.90;;;;;;5055746;28;19913;-73
2022/11/25 07:42:21;;;;;;;;;;;6.90;99.90;;;;;;5037245;28;19916;-73
2022/11/25 07:44:47;;;;;;;;;;;7.00;99.90;;;;;;5055279;28;20313;-72
2022/11/25 07:47:13;;;;;;;;;;;7.10;99.90;;;;;;5055015;28;20321;-73
2022/11/25 07:49:38;;;;;;;;;;;7.10;99.90;;;;;;5054951;28;19916;-73
2022/11/25 07:52:04;;;;;;;;;;;7.30;99.90;;;;;;5055264;28;19947;-73
2022/11/25 07:54:31;;;;;;;;;;;7.30;99.90;;;;;;5055041;28;19947;-74
2022/11/25 07:56:56;;;;;;;;;;;7.10;99.90;;;;;;5036902;28;19913;-74
2022/11/25 07:59:22;;;;;;;;;;;7.00;99.90;;;;;;5054805;28;19971;-74
2022/11/25 08:01:48;;;;;;;;;;;7.00;99.90;;;;;;5055051;28;19909;-72
2022/11/25 08:04:14;;;;;;;;;;;7.10;99.90;;;;;;5054653;28;19916;-72
2022/11/25 08:06:41;;;;;;;;;;;7.20;99.90;;;;;;5054945;28;20283;-73
2022/11/25 08:09:08;;;;;;;;;;;7.30;99.90;;;;;;5055136;28;20370;-74
2022/11/25 08:11:33;;;;;;;;;;;7.40;99.90;;;;;;5054862;28;20419;-73
2022/11/25 08:13:59;;;;;;;;;;;7.40;99.90;;;;;;5054411;28;19909;-74
2022/11/25 08:16:29;;;;;;;;;;;7.30;99.90;;;;;;5055033;28;19909;-74
2022/11/25 08:18:56;;;;;;;;;;;7.40;99.90;;;;;;5054742;28;19908;-72
2022/11/25 08:21:21;;;;;;;;;;;7.50;99.90;;;;;;5054338;28;19916;-74
2022/11/25 08:23:51;;;;;;;;;;;7.40;99.90;;;;;;5054349;28;19913;-72
2022/11/25 08:26:37;;;;;;;;;;;7.40;99.90;;;;;;5054303;28;19921;-72
2022/11/25 08:29:03;;;;;;;;;;;7.50;99.90;;;;;;5053672;28;19916;-72
2022/11/25 08:31:33;;;;;;;;;;;7.50;99.90;;;;;;5054427;28;19909;-72
2022/11/25 08:33:59;;;;;;;;;;;7.50;99.90;;;;;;5054374;28;20346;-72
2022/11/25 08:36:25;;;;;;;;;;;7.60;99.90;;;;;;5054214;28;19924;-73
2022/11/25 08:38:52;;;;;;;;;;;7.60;99.90;;;;;;5054053;28;19909;-72
2022/11/25 08:41:21;;;;;;;;;;;7.70;99.90;;;;;;5054301;28;19913;-72
2022/11/25 08:43:47;;;;;;;;;;;7.80;99.90;;;;;;5053908;28;19920;-71
2022/11/25 08:46:14;;;;;;;;;;;7.90;99.90;;;;;;5053961;28;19909;-74
2022/11/25 08:48:41;;;;;;;;;;;7.90;99.90;;;;;;5054470;28;19908;-73
2022/11/25 08:51:12;;;;;;;;;;;7.90;99.90;;;;;;5053888;28;19919;-73
2022/11/25 08:53:38;;;;;;;;;;;7.90;99.90;;;;;;5053475;28;20382;-74
2022/11/25 08:56:04;;;;;;;;;;;8.00;99.90;;;;;;5053718;28;19948;-73
2022/11/25 08:58:29;;;;;;;;;;;8.00;99.90;;;;;;5053778;28;19908;-74
2022/11/25 09:00:55;;;;;;;;;;;8.20;99.90;;;;;;5053988;28;20305;-74
2022/11/25 09:03:21;;;;;;;;;;;8.30;99.90;;;;;;5053658;28;19954;-72
2022/11/25 09:05:47;;;;;;;;;;;8.40;99.90;;;;;;5053913;28;20011;-73
2022/11/25 09:08:13;;;;;;;;;;;8.60;99.90;;;;;;5053637;28;19963;-73
2022/11/25 09:10:38;;;;;;;;;;;8.70;99.90;;;;;;5035668;28;19909;-74
2022/11/25 09:13:04;;;;;;;;;;;8.80;99.90;;;;;;5053819;28;19987;-75
2022/11/25 09:15:30;;;;;;;;;;;9.00;99.90;;;;;;5053780;28;19913;-72
2022/11/25 09:18:02;;;;;;;;;;;9.50;99.90;;;;;;5054531;28;19951;-72
2022/11/25 09:20:28;;;;;;;;;;;9.90;99.90;;;;;;5053505;28;19908;-74
2022/11/25 09:22:54;;;;;;;;;;;10.40;99.90;;;;;;5053464;28;20366;-73
2022/11/25 09:25:20;;;;;;;;;;;10.80;99.90;;;;;;5053997;28;19936;-74
2022/11/25 09:27:45;;;;;;;;;;;11.00;99.90;;;;;;5053422;28;19936;-74
2022/11/25 09:30:11;;;;;;;;;;;11.30;99.90;;;;;;5058976;28;19909;-73
2022/11/25 09:32:36;;;;;;;;;;;11.50;99.90;;;;;;5058971;28;19913;-73
2022/11/25 09:35:02;;;;;;;;;;;11.60;99.90;;;;;;5062933;28;19917;-73
2022/11/25 09:37:27;;;;;;;;;;;11.80;99.90;;;;;;5056958;28;19909;-72
2022/11/25 09:39:54;;;;;;;;;;;11.90;99.90;;;;;;5053283;28;20387;-73
2022/11/25 09:47:57;;;;;;;;;;;12.20;99.90;;;;;;5054486;28;20027;-73
2022/11/25 09:50:29;;;;;;;;;;;12.30;99.90;;;;;;5057479;28;19995;-73
2022/11/25 09:53:02;;;;;;;;;;;12.40;99.90;;;;;;5056997;28;19927;-73
2022/11/25 09:55:31;;;;;;;;;;;12.40;99.90;;;;;;5057651;28;19920;-72
2022/11/25 09:58:04;;;;;;;;;;;12.40;99.90;;;;;;5057057;28;19913;-74
2022/11/25 10:00:41;;;;;;;;;;;12.40;99.90;;;;;;5057293;28;19909;-72
2022/11/25 10:03:09;;;;;;;;;;;12.40;99.90;;;;;;5056932;28;20081;-72
2022/11/25 10:05:41;;;;;;;;;;;12.50;99.90;;;;;;5057500;28;19909;-73
2022/11/25 10:08:09;;;;;;;;;;;12.40;99.90;;;;;;5056903;28;20363;-75
2022/11/25 10:10:46;;;;;;;;;;;12.40;99.90;;;;;;5057186;28;19909;-74
2022/11/25 10:13:15;;;;;;;;;;;12.40;99.90;;;;;;5056731;28;19909;-74
2022/11/25 10:15:43;;;;;;;;;;;12.50;99.90;;;;;;5057012;28;20008;-72
2022/11/25 10:18:21;;;;;;;;;;;12.50;99.90;;;;;;5057196;28;19908;-74
2022/11/25 10:20:48;;;;;;;;;;;12.60;99.90;;;;;;5057266;28;19962;-73
2022/11/25 10:23:17;;;;;;;;;;;12.70;99.90;;;;;;5056604;28;19961;-73
2022/11/25 10:25:47;;;;;;;;;;;12.80;99.90;;;;;;5056544;28;19916;-73
2022/11/25 10:28:20;;;;;;;;;;;12.80;99.90;;;;;;5056800;28;19916;-74
2022/11/25 10:30:57;;;;;;;;;;;12.80;99.90;;;;;;5056802;28;19913;-72
2022/11/25 10:33:25;;;;;;;;;;;12.80;99.90;;;;;;5057065;28;19915;-76
2022/11/25 10:35:51;;;;;;;;;;;12.80;99.90;;;;;;5056295;28;19912;-72
2022/11/25 10:38:26;;;;;;;;;;;12.80;99.90;;;;;;5056882;28;19912;-71
2022/11/25 10:40:53;;;;;;;;;;;12.80;99.90;;;;;;5056570;28;19909;-75
2022/11/25 10:43:19;;;;;;;;;;;12.80;99.90;;;;;;5056484;28;20313;-72
2022/11/25 10:45:50;;;;;;;;;;;12.90;99.90;;;;;;5056221;28;19909;-72
2022/11/25 10:48:36;;;;;;;;;;;12.90;99.90;;;;;;5038001;28;19912;-74
2022/11/25 10:51:08;;;;;;;;;;;13.00;99.90;;;;;;5055292;28;19982;-72
2022/11/25 10:53:34;;;;;;;;;;;13.00;99.90;;;;;;5055672;28;19924;-73
2022/11/25 10:56:02;;;;;;;;;;;13.10;99.90;;;;;;5055919;28;20011;-73
2022/11/25 10:58:29;;;;;;;;;;;13.00;99.90;;;;;;5037275;28;20344;-74
2022/11/25 11:01:02;;;;;;;;;;;12.90;99.90;;;;;;5055335;28;19909;-72
2022/11/25 11:03:28;;;;;;;;;;;12.80;99.90;;;;;;5055837;28;20349;-74
2022/11/25 11:05:53;;;;;;;;;;;12.70;99.90;;;;;;5056131;28;19908;-73
2022/11/25 11:08:24;;;;;;;;;;;12.60;99.90;;;;;;5056055;28;20359;-74
2022/11/25 11:11:08;;;;;;;;;;;12.50;99.90;;;;;;5055779;28;20282;-72
2022/11/25 11:13:34;;;;;;;;;;;12.50;99.90;;;;;;5056247;28;19999;-74
2022/11/25 11:15:59;;;;;;;;;;;12.40;99.90;;;;;;5055546;28;20003;-74
2022/11/25 11:18:26;;;;;;;;;;;12.40;99.90;;;;;;5056372;28;19916;-73
2022/11/25 11:20:53;;;;;;;;;;;12.40;99.90;;;;;;5055828;28;19909;-71
2022/11/25 11:23:19;;;;;;;;;;;12.40;99.90;;;;;;5055772;28;19917;-73
2022/11/25 11:26:02;;;;;;;;;;;12.30;99.90;;;;;;5055414;28;19991;-75
2022/11/25 11:28:34;;;;;;;;;;;12.30;99.90;;;;;;5055334;28;20003;-73
2022/11/25 11:31:00;;;;;;;;;;;12.40;99.90;;;;;;5055294;28;19909;-74
2022/11/25 11:33:36;;;;;;;;;;;12.40;99.90;;;;;;5055285;28;19958;-72
2022/11/25 11:36:09;;;;;;;;;;;12.40;99.90;;;;;;5037273;28;19955;-72
2022/11/25 11:38:40;;;;;;;;;;;12.40;99.90;;;;;;5055165;28;19909;-73
2022/11/25 11:41:06;;;;;;;;;;;12.40;99.90;;;;;;5055508;28;20008;-73
2022/11/25 11:43:40;;;;;;;;;;;12.40;99.90;;;;;;5055017;28;19936;-72
2022/11/25 11:46:24;;;;;;;;;;;12.50;99.90;;;;;;5055698;28;19968;-75
2022/11/25 11:49:08;;;;;;;;;;;12.50;99.90;;;;;;5054996;28;19908;-74
2022/11/25 11:51:55;;;;;;;;;;;12.50;99.90;;;;;;5054761;28;19958;-71
2022/11/25 11:54:59;;;;;;;;;;;12.50;99.90;;;;;;5054815;28;19959;-74
2022/11/25 11:57:31;;;;;;;;;;;12.60;99.90;;;;;;4974332;28;19917;-74
2022/11/25 12:00:00;;;;;;;;;;;12.60;99.90;;;;;;4974092;28;19938;-72
2022/11/25 12:02:44;;;;;;;;;;;12.70;99.90;;;;;;5016856;28;19908;-74
2022/11/25 12:05:10;;;;;;;;;;;12.70;99.90;;;;;;5054624;28;19909;-71
2022/11/25 12:07:35;;;;;;;;;;;12.70;99.90;;;;;;5055179;28;20003;-73
2022/11/25 12:10:05;;;;;;;;;;;12.80;99.90;;;;;;5054112;28;20389;-74
2022/11/25 12:12:47;;;;;;;;;;;12.80;99.90;;;;;;5055102;28;20317;-73
2022/11/25 12:15:31;;;;;;;;;;;12.90;99.90;;;;;;5054474;28;20004;-73
2022/11/25 12:18:00;;;;;;;;;;;12.90;99.90;;;;;;5054896;28;19920;-73
2022/11/25 12:20:37;;;;;;;;;;;12.90;99.90;;;;;;5036539;28;19916;-72
2022/11/25 12:23:14;;;;;;;;;;;12.90;99.90;;;;;;5054976;28;20278;-72
2022/11/25 12:25:40;;;;;;;;;;;12.90;99.90;;;;;;5054344;28;19909;-74
2022/11/25 12:28:06;;;;;;;;;;;12.90;99.90;;;;;;5054557;28;19909;-73
2022/11/25 12:30:40;;;;;;;;;;;13.00;99.90;;;;;;5054212;28;19955;-73
2022/11/25 12:33:06;;;;;;;;;;;13.00;99.90;;;;;;5054189;28;19944;-73
2022/11/25 12:35:44;;;;;;;;;;;13.00;99.90;;;;;;5036155;28;19952;-72
2022/11/25 12:38:22;;;;;;;;;;;13.10;99.90;;;;;;5054691;28;19932;-74
2022/11/25 12:40:50;;;;;;;;;;;13.10;99.90;;;;;;5054403;28;19913;-74
2022/11/25 12:43:16;;;;;;;;;;;13.20;99.90;;;;;;5054096;28;20409;-74
2022/11/25 12:45:42;;;;;;;;;;;13.20;99.90;;;;;;5054535;28;19909;-73
2022/11/25 12:48:09;;;;;;;;;;;13.20;99.90;;;;;;5053940;28;20456;-75
2022/11/25 12:50:57;;;;;;;;;;;13.20;99.90;;;;;;5053894;28;20000;-73
2022/11/25 12:53:23;;;;;;;;;;;13.30;99.90;;;;;;5053405;28;19921;-74
2022/11/25 12:55:48;;;;;;;;;;;13.30;99.90;;;;;;5035759;28;19919;-72
2022/11/25 12:58:33;;;;;;;;;;;13.30;99.90;;;;;;5054049;28;19909;-73
2022/11/25 13:01:02;;;;;;;;;;;13.30;99.90;;;;;;5054055;28;19987;-72
2022/11/25 13:03:38;;;;;;;;;;;13.30;99.90;;;;;;5054265;28;19999;-72
2022/11/25 13:06:23;;;;;;;;;;;13.30;99.90;;;;;;5053683;28;19916;-74
2022/11/25 13:08:48;;;;;;;;;;;13.30;99.90;;;;;;5053614;28;19924;-74
2022/11/25 13:11:32;;;;;;;;;;;13.40;99.90;;;;;;5054170;28;19909;-74
2022/11/25 13:14:01;;;;;;;;;;;13.40;99.90;;;;;;5053559;28;19916;-74
2022/11/25 13:16:26;;;;;;;;;;;13.40;99.90;;;;;;5053564;28;19939;-73
2022/11/25 13:18:53;;;;;;;;;;;13.30;99.90;;;;;;5054045;28;19909;-71
2022/11/25 13:21:19;;;;;;;;;;;13.40;99.90;;;;;;5053543;28;19909;-72
2022/11/25 13:23:52;;;;;;;;;;;13.30;99.90;;;;;;5052870;28;19916;-73
2022/11/25 13:26:34;;;;;;;;;;;13.40;99.90;;;;;;5053461;28;19913;-75
2022/11/25 13:29:09;;;;;;;;;;;13.40;99.90;;;;;;5035273;28;19909;-71
2022/11/25 13:31:53;;;;;;;;;;;13.40;99.90;;;;;;5035511;28;19916;-72
2022/11/25 13:34:18;;;;;;;;;;;13.40;99.90;;;;;;5053898;28;19952;-75
2022/11/25 13:36:44;;;;;;;;;;;13.40;99.90;;;;;;5053321;28;19967;-73
2022/11/25 13:39:13;;;;;;;;;;;13.40;99.90;;;;;;5053307;28;19909;-73
2022/11/25 13:41:44;;;;;;;;;;;13.40;99.90;;;;;;5053580;28;19952;-75
2022/11/25 13:44:31;;;;;;;;;;;13.40;99.90;;;;;;5053210;28;19932;-72
2022/11/25 13:46:58;;;;;;;;;;;13.50;99.90;;;;;;5053878;28;19909;-73
2022/11/25 13:49:29;;;;;;;;;;;13.40;99.90;;;;;;5053523;28;19916;-72
2022/11/25 13:52:14;;;;;;;;;;;13.50;99.90;;;;;;5053013;28;19921;-75
2022/11/25 13:54:40;;;;;;;;;;;13.40;99.90;;;;;;5052639;28;19983;-72
2022/11/25 13:57:11;;;;;;;;;;;13.50;99.90;;;;;;5053147;28;20432;-72
2022/11/25 13:59:47;;;;;;;;;;;13.50;99.90;;;;;;5053363;28;19913;-75
2022/11/25 14:02:43;;;;;;;;;;;13.50;99.90;;;;;;5053412;28;20252;-74
2022/11/25 14:05:28;;;;;;;;;;;13.50;99.90;;;;;;5036554;28;20043;-74
2022/11/25 14:08:12;;;;;;;;;;;13.50;99.90;;;;;;5053288;28;19924;-74
2022/11/25 14:10:44;;;;;;;;;;;13.50;99.90;;;;;;5053005;28;20447;-75
2022/11/25 14:13:28;;;;;;;;;;;13.50;99.90;;;;;;5053008;28;19909;-73
2022/11/25 14:15:57;;;;;;;;;;;13.50;99.90;;;;;;5052907;28;19962;-74
2022/11/25 14:18:27;;;;;;;;;;;13.50;99.90;;;;;;5053711;28;20377;-73
2022/11/25 14:20:56;;;;;;;;;;;13.50;99.90;;;;;;5053295;28;20374;-72
2022/11/25 14:23:24;;;;;;;;;;;13.50;99.90;;;;;;5053465;28;19909;-74
2022/11/25 14:25:51;;;;;;;;;;;13.50;99.90;;;;;;5052895;28;19960;-74
2022/11/25 14:28:20;;;;;;;;;;;13.50;99.90;;;;;;5035060;28;19951;-77
2022/11/25 14:30:50;;;;;;;;;;;13.50;99.90;;;;;;5053429;28;19908;-76
2022/11/25 14:33:17;;;;;;;;;;;13.50;99.90;;;;;;5053392;28;20371;-71
2022/11/25 14:35:47;;;;;;;;;;;13.50;99.90;;;;;;5056336;28;19913;-73
2022/11/25 14:38:16;;;;;;;;;;;13.40;99.90;;;;;;5056370;28;19931;-72
2022/11/25 14:40:51;;;;;;;;;;;13.40;99.90;;;;;;5056649;28;19947;-72
2022/11/25 14:43:18;;;;;;;;;;;13.40;99.90;;;;;;5056168;28;19909;-73
2022/11/25 14:45:44;;;;;;;;;;;13.40;99.90;;;;;;5056522;28;19909;-73
2022/11/25 14:48:12;;;;;;;;;;;13.30;99.90;;;;;;5056218;28;20279;-73